Wildrose, North Dakota
Current Conditions -  °F | °C
As of 9:55 PM on Tuesday 27 Jan 2015 (Local Time) from KD60 Reporting Station
Clear Clear  
Wind Chill: 28°   Ceiling: Unl
Heat Index: 28°   Visibility: 10mi
Dew Point: 28°   Wind: 3mph
Humidity: 100%   Direction: 80°E
Pressure: 29.79"   Gusts: NA
Location:  48.63°N, 103.18°W
Report Text: KD60 280355Z AUTO 08003KT 10SM CLR M02/M02 A2979 RMK AO2
Loading
Personal Weather Stations






























Interactive Weather Map New forecast layout! Learn more

10-Day Weather Forecast

Advertisements
Track Severe Weather on mobile